Dardenne Prairie, Missouri
Current Conditions -  °F | °C
As of 9:54 AM on Thursday 30 Oct 2014 (Local Time) from KSUS Reporting Station
Broken Clouds Broken Clouds  
Wind Chill:   Ceiling: 9500
Heat Index:   Visibility: 10mi
Dew Point:   Wind: 0mph
Humidity: 80%   Direction: NA
Pressure: 30.14"   Gusts: NA
Location:  38.757°N, 90.7247°W
Report Text: KSUS 301454Z 00000KT 10SM BKN095 07/04 A3014 RMK AO2 SLP210 T00720039 56001
Loading
Personal Weather Stations






























Interactive Weather Map
Tropical Storm Tracking
New forecast layout! Learn more

10-Day Weather Forecast

Advertisements
Track Severe Weather on mobile